| time (UTC) | temp F | wind direction | speed MPH | gust MPH | rain 1hr in | rain 24hr in | rain mn in | humidity % | barometer mb |
| 20260507133210 | 53 | 281 | 4.0 | 0.0 | 0.00 | 0.00 | 0.14 | 86 | 1020.5 |
| 20260507130210 | 53 | 355 | 5.0 | 0.0 | 0.00 | 0.00 | 0.14 | 88 | 1020.6 |
| 20260507123210 | 52 | 246 | 4.0 | 0.0 | 0.00 | 0.00 | 0.14 | 91 | 1020.5 |
| 20260507120211 | 51 | 175 | 7.0 | 0.0 | 0.00 | 0.00 | 0.13 | 91 | 1020.4 |
| 20260507113210 | 51 | 169 | 4.0 | 0.0 | 0.00 | 0.00 | 0.10 | 89 | 1020.6 |
| 20260507110210 | 52 | 244 | 4.0 | 0.0 | 0.00 | 0.00 | 0.05 | 87 | 1020.3 |
| 20260507103216 | 52 | 0 | 2.0 | 0.0 | 0.00 | 0.00 | 0.05 | 89 | 1020.4 |
| 20260507100212 | 51 | 173 | 5.0 | 0.0 | 0.00 | 0.00 | 0.05 | 90 | 1020.2 |
| 20260507093211 | 51 | 223 | 2.0 | 0.0 | 0.00 | 0.00 | 0.05 | 91 | 1019.9 |
| 20260507090211 | 51 | 182 | 2.0 | 0.0 | 0.00 | 0.00 | 0.05 | 93 | 1019.7 |
| 20260507083212 | 50 | 232 | 9.0 | 0.0 | 0.00 | 0.00 | 0.05 | 94 | 1019.5 |
| 20260507080211 | 49 | 168 | 9.0 | 0.0 | 0.00 | 0.00 | 0.05 | 95 | 1019.5 |
| 20260507073212 | 48 | 165 | 7.0 | 0.0 | 0.00 | 0.00 | 0.05 | 96 | 1019.2 |
| 20260507070212 | 48 | 190 | 6.0 | 0.0 | 0.00 | 0.00 | 0.05 | 96 | 1019.1 |
| 20260507063211 | 47 | 221 | 3.0 | 0.0 | 0.00 | 0.00 | 0.04 | 96 | 1018.8 |
| 20260507060211 | 46 | 215 | 4.0 | 0.0 | 0.00 | 0.00 | 0.03 | 96 | 1018.7 |
| 20260507053211 | 46 | 210 | 5.0 | 0.0 | 0.00 | 0.00 | 0.02 | 96 | 1018.4 |
| 20260507050213 | 45 | 240 | 3.0 | 0.0 | 0.00 | 0.00 | 0.01 | 96 | 1018.1 |
| 20260507043211 | 44 | 250 | 1.0 | 0.0 | 0.00 | 0.00 | 0.01 | 96 | 1017.7 |
| 20260507040216 | 43 | 211 | 2.0 | 0.0 | 0.00 | 0.00 | 0.00 | 96 | 1017.4 |
| 20260507033211 | 43 | 227 | 4.0 | 0.0 | 0.00 | 0.00 | 0.00 | 96 | 1017.2 |
| 20260507030211 | 42 | 213 | 3.0 | 0.0 | 0.00 | 0.00 | 0.00 | 95 | 1017.0 |
| 20260507023211 | 42 | 230 | 0.0 | 0.0 | 0.00 | 0.00 | 0.00 | 95 | 1016.9 |
| 20260507020211 | 42 | 212 | 1.0 | 0.0 | 0.00 | 0.00 | 0.00 | 95 | 1016.8 |
| 20260507013212 | 42 | 294 | 2.0 | 0.0 | 0.00 | 0.00 | 0.00 | 95 | 1016.7 |
| 20260507010211 | 42 | 268 | 3.0 | 0.0 | 0.00 | 0.00 | 0.00 | 95 | 1016.5 |
| 20260507003209 | 43 | 246 | 1.0 | 0.0 | 0.00 | 0.00 | 0.00 | 94 | 1016.4 |
| 20260507000209 | 44 | 246 | 0.0 | 0.0 | 0.00 | 0.00 | 0.00 | 94 | 1016.1 |
| 20260506233209 | 45 | 215 | 1.0 | 0.0 | 0.00 | 0.00 | 0.00 | 94 | 1016.2 |
| 20260506230209 | 45 | 220 | 0.0 | 0.0 | 0.00 | 0.00 | 0.00 | 94 | 1016.1 |
| 20260506223209 | 45 | 192 | 2.0 | 0.0 | 0.00 | 0.00 | 0.00 | 94 | 1016.0 |
| 20260506213209 | 46 | 198 | 2.0 | 0.0 | 0.00 | 0.00 | 0.32 | 93 | 1015.6 |
| 20260506210210 | 47 | 267 | 1.0 | 0.0 | 0.00 | 0.00 | 0.32 | 93 | 1015.5 |
| 20260506203210 | 47 | 267 | 2.0 | 0.0 | 0.00 | 0.00 | 0.32 | 93 | 1015.4 |
| 20260506200210 | 48 | 184 | 6.0 | 0.0 | 0.00 | 0.00 | 0.32 | 93 | 1015.3 |
| 20260506193215 | 48 | 173 | 6.0 | 0.0 | 0.00 | 0.00 | 0.32 | 93 | 1014.9 |
| 20260506190211 | 49 | 189 | 3.0 | 0.0 | 0.00 | 0.00 | 0.32 | 92 | 1014.4 |
| 20260506183209 | 49 | 253 | 7.0 | 0.0 | 0.00 | 0.00 | 0.32 | 93 | 1014.0 |
| 20260506180216 | 50 | 256 | 4.0 | 0.0 | 0.00 | 0.00 | 0.32 | 93 | 1013.9 |
| 20260506173210 | 50 | 198 | 7.0 | 0.0 | 0.00 | 0.00 | 0.32 | 93 | 1013.3 |
| 20260506170215 | 50 | 279 | 5.0 | 0.0 | 0.00 | 0.00 | 0.31 | 93 | 1013.0 |
| 20260506163210 | 50 | 181 | 5.0 | 0.0 | 0.00 | 0.00 | 0.31 | 92 | 1013.1 |
| 20260506160210 | 50 | 227 | 10.0 | 0.0 | 0.00 | 0.00 | 0.27 | 92 | 1013.0 |
| 20260506153210 | 51 | 229 | 17.0 | 0.0 | 0.00 | 0.00 | 0.24 | 91 | 1012.8 |
| 20260506150210 | 54 | 171 | 15.0 | 0.0 | 0.00 | 0.00 | 0.07 | 87 | 1012.0 |
| 20260506143210 | 60 | 224 | 9.0 | 0.0 | 0.00 | 0.00 | 0.00 | 73 | 1010.8 |
| 20260506140210 | 61 | 261 | 6.0 | 0.0 | 0.00 | 0.00 | 0.00 | 65 | 1010.6 |